ROMMA est une association bénévole à but non lucratif. Votre soutien est indispensable : ADHERER à ROMMA ou FAIRE un DON

Crest - (26, Drôme)

Vallée de la Drôme (315 m)   Longitude: 5°2' E   Latitude: 44°44' N Station partenaire n°62
 

Détail journalier du     <<     >>

Température Precipitation Humidité Pression Vent Dir Rafale Dir. rafale Ensol.
Heure (°C) (mm) (%) (hPa) (km/h) (km/h) (min)
01:00 11.806210079SE26SE0
02:00 11.206710076SE24SE0
03:00 10.806910073ENE16SE0
04:00 11.406310075SE18SE0
05:00 14.604310066SE24ESE0
06:00 16.2037100614SE40SE0
07:00 15.8039100616ESE44ESE0
08:00 15.1043100610SE35SE0
09:00 15.8042100714SE35SE0
10:00 14.1055100812SSE26SSE0
11:00 16.1045100813SE37SE0
12:00 17.1041100811ESE35ESE0
13:00 15.7060100717SE32SE7
14:00 17.5043100820SE61SE4
15:00 17.8044100825SE53SE48
16:00 17.6042100827SE66SE49
17:00 16.9044100926SE64SE31
18:00 16.5044101019ESE48SE0
19:00 14.7055101119SE45SE0
20:00 16.3047101121SE42SE0
21:00 15.4049101118ESE40ESE0
22:00 16.1046101213ESE34ESE0
23:00 13.2066101311SE39SE0
minuit 14.405610139SE35SE0

Graphique du 17-12-2019

 

Serveur OMMA